sensor_id;sensor_type;location;lat;lon;timestamp;P1;durP1;ratioP1;P2;durP2;ratioP2
13580;SDS011;6861;46.170;7.222;2024-03-17T00:01:19;1.85;;;0.80;;
13580;SDS011;6861;46.170;7.222;2024-03-17T00:03:45;3.20;;;1.10;;
13580;SDS011;6861;46.170;7.222;2024-03-17T00:06:12;2.35;;;0.93;;
13580;SDS011;6861;46.170;7.222;2024-03-17T00:08:40;1.75;;;1.13;;
13580;SDS011;6861;46.170;7.222;2024-03-17T00:11:07;3.20;;;1.25;;
13580;SDS011;6861;46.170;7.222;2024-03-17T00:13:33;3.20;;;1.20;;
13580;SDS011;6861;46.170;7.222;2024-03-17T00:16:00;3.97;;;1.10;;
13580;SDS011;6861;46.170;7.222;2024-03-17T00:18:27;2.28;;;1.17;;
13580;SDS011;6861;46.170;7.222;2024-03-17T00:20:54;1.83;;;1.00;;
13580;SDS011;6861;46.170;7.222;2024-03-17T00:23:20;1.75;;;0.90;;
13580;SDS011;6861;46.170;7.222;2024-03-17T00:25:49;3.85;;;1.10;;
13580;SDS011;6861;46.170;7.222;2024-03-17T00:28:16;1.27;;;1.00;;
13580;SDS011;6861;46.170;7.222;2024-03-17T00:30:43;2.30;;;1.15;;
13580;SDS011;6861;46.170;7.222;2024-03-17T00:33:09;2.65;;;1.10;;
13580;SDS011;6861;46.170;7.222;2024-03-17T00:35:37;2.38;;;1.30;;
13580;SDS011;6861;46.170;7.222;2024-03-17T00:38:03;2.42;;;1.20;;
13580;SDS011;6861;46.170;7.222;2024-03-17T00:40:35;1.80;;;1.00;;
13580;SDS011;6861;46.170;7.222;2024-03-17T00:43:03;1.50;;;1.13;;
13580;SDS011;6861;46.170;7.222;2024-03-17T00:45:30;2.58;;;1.00;;
13580;SDS011;6861;46.170;7.222;2024-03-17T00:47:57;1.55;;;1.00;;
13580;SDS011;6861;46.170;7.222;2024-03-17T00:50:24;2.63;;;1.00;;
13580;SDS011;6861;46.170;7.222;2024-03-17T00:52:50;2.00;;;1.00;;
13580;SDS011;6861;46.170;7.222;2024-03-17T00:55:17;4.00;;;1.20;;
13580;SDS011;6861;46.170;7.222;2024-03-17T00:57:44;3.38;;;1.30;;
13580;SDS011;6861;46.170;7.222;2024-03-17T01:00:13;2.95;;;1.27;;
13580;SDS011;6861;46.170;7.222;2024-03-17T01:02:40;2.28;;;1.00;;
13580;SDS011;6861;46.170;7.222;2024-03-17T01:05:08;2.10;;;1.13;;
13580;SDS011;6861;46.170;7.222;2024-03-17T01:07:34;3.40;;;1.20;;
13580;SDS011;6861;46.170;7.222;2024-03-17T01:10:01;4.00;;;1.25;;
13580;SDS011;6861;46.170;7.222;2024-03-17T01:12:28;2.00;;;1.10;;
13580;SDS011;6861;46.170;7.222;2024-03-17T01:14:55;2.72;;;1.35;;
13580;SDS011;6861;46.170;7.222;2024-03-17T01:17:23;2.10;;;1.30;;
13580;SDS011;6861;46.170;7.222;2024-03-17T01:19:50;2.65;;;1.20;;
13580;SDS011;6861;46.170;7.222;2024-03-17T01:22:17;1.92;;;1.10;;
13580;SDS011;6861;46.170;7.222;2024-03-17T01:24:44;2.53;;;1.20;;
13580;SDS011;6861;46.170;7.222;2024-03-17T01:27:11;2.90;;;1.20;;
13580;SDS011;6861;46.170;7.222;2024-03-17T01:29:41;2.40;;;1.00;;
13580;SDS011;6861;46.170;7.222;2024-03-17T01:32:08;2.17;;;1.20;;
13580;SDS011;6861;46.170;7.222;2024-03-17T01:34:37;2.45;;;1.08;;
13580;SDS011;6861;46.170;7.222;2024-03-17T01:37:04;2.88;;;1.00;;
13580;SDS011;6861;46.170;7.222;2024-03-17T01:39:31;1.73;;;1.00;;
13580;SDS011;6861;46.170;7.222;2024-03-17T01:41:57;2.38;;;1.13;;
13580;SDS011;6861;46.170;7.222;2024-03-17T01:44:25;2.45;;;1.20;;
13580;SDS011;6861;46.170;7.222;2024-03-17T01:46:53;2.40;;;1.40;;
13580;SDS011;6861;46.170;7.222;2024-03-17T01:49:21;1.63;;;1.00;;
13580;SDS011;6861;46.170;7.222;2024-03-17T01:51:49;3.00;;;1.20;;
13580;SDS011;6861;46.170;7.222;2024-03-17T01:54:17;2.25;;;1.20;;
13580;SDS011;6861;46.170;7.222;2024-03-17T01:56:43;1.58;;;1.10;;
13580;SDS011;6861;46.170;7.222;2024-03-17T01:59:11;2.85;;;1.00;;
13580;SDS011;6861;46.170;7.222;2024-03-17T02:01:37;2.17;;;1.27;;
13580;SDS011;6861;46.170;7.222;2024-03-17T02:04:04;3.22;;;1.10;;
13580;SDS011;6861;46.170;7.222;2024-03-17T02:06:31;1.15;;;0.85;;
13580;SDS011;6861;46.170;7.222;2024-03-17T02:09:00;2.60;;;0.82;;
13580;SDS011;6861;46.170;7.222;2024-03-17T02:11:27;3.25;;;1.30;;
13580;SDS011;6861;46.170;7.222;2024-03-17T02:13:55;2.30;;;0.90;;
13580;SDS011;6861;46.170;7.222;2024-03-17T02:16:22;2.25;;;0.98;;
13580;SDS011;6861;46.170;7.222;2024-03-17T02:18:53;3.33;;;1.00;;
13580;SDS011;6861;46.170;7.222;2024-03-17T02:21:20;3.03;;;1.00;;
13580;SDS011;6861;46.170;7.222;2024-03-17T02:23:50;1.38;;;0.88;;
13580;SDS011;6861;46.170;7.222;2024-03-17T02:26:16;2.67;;;1.00;;
13580;SDS011;6861;46.170;7.222;2024-03-17T02:28:45;1.48;;;1.02;;
13580;SDS011;6861;46.170;7.222;2024-03-17T02:31:13;2.67;;;1.20;;
13580;SDS011;6861;46.170;7.222;2024-03-17T02:33:42;1.88;;;1.17;;
13580;SDS011;6861;46.170;7.222;2024-03-17T02:36:09;1.95;;;0.93;;
13580;SDS011;6861;46.170;7.222;2024-03-17T02:38:37;4.43;;;1.05;;
13580;SDS011;6861;46.170;7.222;2024-03-17T02:41:23;2.05;;;0.98;;
13580;SDS011;6861;46.170;7.222;2024-03-17T02:43:50;2.17;;;1.20;;
13580;SDS011;6861;46.170;7.222;2024-03-17T02:46:18;1.30;;;0.98;;
13580;SDS011;6861;46.170;7.222;2024-03-17T02:48:51;2.92;;;0.88;;
13580;SDS011;6861;46.170;7.222;2024-03-17T02:51:20;1.38;;;0.80;;
13580;SDS011;6861;46.170;7.222;2024-03-17T02:53:49;2.03;;;1.10;;
13580;SDS011;6861;46.170;7.222;2024-03-17T02:56:17;1.70;;;0.90;;
13580;SDS011;6861;46.170;7.222;2024-03-17T02:58:47;1.48;;;0.82;;
13580;SDS011;6861;46.170;7.222;2024-03-17T03:01:16;3.97;;;0.90;;
13580;SDS011;6861;46.170;7.222;2024-03-17T03:03:45;2.60;;;1.08;;
13580;SDS011;6861;46.170;7.222;2024-03-17T03:06:12;4.40;;;1.15;;
13580;SDS011;6861;46.170;7.222;2024-03-17T03:08:40;1.55;;;0.75;;
13580;SDS011;6861;46.170;7.222;2024-03-17T03:11:08;3.08;;;0.85;;
13580;SDS011;6861;46.170;7.222;2024-03-17T03:13:38;2.53;;;0.80;;
13580;SDS011;6861;46.170;7.222;2024-03-17T03:16:07;2.85;;;0.80;;
13580;SDS011;6861;46.170;7.222;2024-03-17T03:18:35;2.67;;;0.90;;
13580;SDS011;6861;46.170;7.222;2024-03-17T03:21:04;1.15;;;0.77;;
13580;SDS011;6861;46.170;7.222;2024-03-17T03:23:32;3.60;;;0.90;;
13580;SDS011;6861;46.170;7.222;2024-03-17T03:26:00;1.17;;;0.82;;
13580;SDS011;6861;46.170;7.222;2024-03-17T03:28:30;3.45;;;1.00;;
13580;SDS011;6861;46.170;7.222;2024-03-17T03:31:00;2.38;;;0.93;;
13580;SDS011;6861;46.170;7.222;2024-03-17T03:33:29;3.22;;;1.00;;
13580;SDS011;6861;46.170;7.222;2024-03-17T03:35:56;2.70;;;0.98;;
13580;SDS011;6861;46.170;7.222;2024-03-17T03:38:23;2.72;;;0.90;;
13580;SDS011;6861;46.170;7.222;2024-03-17T03:40:51;1.52;;;0.93;;
13580;SDS011;6861;46.170;7.222;2024-03-17T03:43:19;5.72;;;0.98;;
13580;SDS011;6861;46.170;7.222;2024-03-17T03:45:46;2.22;;;1.00;;
13580;SDS011;6861;46.170;7.222;2024-03-17T03:48:13;2.55;;;1.10;;
13580;SDS011;6861;46.170;7.222;2024-03-17T03:50:43;3.38;;;1.08;;
13580;SDS011;6861;46.170;7.222;2024-03-17T03:53:10;1.73;;;1.05;;
13580;SDS011;6861;46.170;7.222;2024-03-17T03:55:37;2.20;;;1.00;;
13580;SDS011;6861;46.170;7.222;2024-03-17T03:58:04;2.95;;;1.23;;
13580;SDS011;6861;46.170;7.222;2024-03-17T04:00:32;2.10;;;1.08;;
13580;SDS011;6861;46.170;7.222;2024-03-17T04:03:00;2.58;;;1.33;;
13580;SDS011;6861;46.170;7.222;2024-03-17T04:05:28;3.33;;;1.13;;
13580;SDS011;6861;46.170;7.222;2024-03-17T04:07:57;2.42;;;0.98;;
13580;SDS011;6861;46.170;7.222;2024-03-17T04:10:24;1.98;;;1.05;;
13580;SDS011;6861;46.170;7.222;2024-03-17T04:12:52;2.42;;;1.00;;
13580;SDS011;6861;46.170;7.222;2024-03-17T04:15:19;4.13;;;0.90;;
13580;SDS011;6861;46.170;7.222;2024-03-17T04:17:47;2.92;;;0.85;;
13580;SDS011;6861;46.170;7.222;2024-03-17T04:20:14;1.08;;;0.80;;
13580;SDS011;6861;46.170;7.222;2024-03-17T04:22:42;1.52;;;1.00;;
13580;SDS011;6861;46.170;7.222;2024-03-17T04:25:11;2.63;;;0.82;;
13580;SDS011;6861;46.170;7.222;2024-03-17T04:27:39;2.40;;;0.80;;
13580;SDS011;6861;46.170;7.222;2024-03-17T04:30:07;2.47;;;1.17;;
13580;SDS011;6861;46.170;7.222;2024-03-17T04:32:37;3.60;;;1.20;;
13580;SDS011;6861;46.170;7.222;2024-03-17T04:35:04;2.83;;;1.55;;
13580;SDS011;6861;46.170;7.222;2024-03-17T04:37:32;2.97;;;1.25;;
13580;SDS011;6861;46.170;7.222;2024-03-17T04:40:05;2.03;;;1.05;;
13580;SDS011;6861;46.170;7.222;2024-03-17T04:42:37;1.83;;;0.90;;
13580;SDS011;6861;46.170;7.222;2024-03-17T04:45:06;1.30;;;0.90;;
13580;SDS011;6861;46.170;7.222;2024-03-17T04:47:36;1.77;;;0.88;;
13580;SDS011;6861;46.170;7.222;2024-03-17T04:50:04;2.00;;;1.00;;
13580;SDS011;6861;46.170;7.222;2024-03-17T04:52:32;2.03;;;0.90;;
13580;SDS011;6861;46.170;7.222;2024-03-17T04:54:59;1.98;;;0.82;;
13580;SDS011;6861;46.170;7.222;2024-03-17T04:57:26;1.77;;;0.80;;
13580;SDS011;6861;46.170;7.222;2024-03-17T04:59:55;2.08;;;1.10;;
13580;SDS011;6861;46.170;7.222;2024-03-17T05:02:22;2.20;;;1.10;;
13580;SDS011;6861;46.170;7.222;2024-03-17T05:04:50;2.85;;;0.90;;
13580;SDS011;6861;46.170;7.222;2024-03-17T05:07:17;3.03;;;1.00;;
13580;SDS011;6861;46.170;7.222;2024-03-17T05:09:44;1.80;;;0.80;;
13580;SDS011;6861;46.170;7.222;2024-03-17T05:12:11;1.05;;;0.82;;
13580;SDS011;6861;46.170;7.222;2024-03-17T05:14:39;1.92;;;0.98;;
13580;SDS011;6861;46.170;7.222;2024-03-17T05:17:08;1.40;;;0.98;;
13580;SDS011;6861;46.170;7.222;2024-03-17T05:19:35;2.88;;;1.15;;
13580;SDS011;6861;46.170;7.222;2024-03-17T05:22:02;1.67;;;1.00;;
13580;SDS011;6861;46.170;7.222;2024-03-17T05:24:30;1.73;;;0.93;;
13580;SDS011;6861;46.170;7.222;2024-03-17T05:26:57;1.17;;;0.93;;
13580;SDS011;6861;46.170;7.222;2024-03-17T05:29:23;3.10;;;2.30;;
13580;SDS011;6861;46.170;7.222;2024-03-17T05:31:50;2.58;;;2.10;;
13580;SDS011;6861;46.170;7.222;2024-03-17T05:34:19;2.65;;;1.40;;
13580;SDS011;6861;46.170;7.222;2024-03-17T05:36:46;3.65;;;1.00;;
13580;SDS011;6861;46.170;7.222;2024-03-17T05:39:13;1.90;;;1.20;;
13580;SDS011;6861;46.170;7.222;2024-03-17T05:41:41;3.33;;;1.02;;
13580;SDS011;6861;46.170;7.222;2024-03-17T05:44:09;1.95;;;0.75;;
13580;SDS011;6861;46.170;7.222;2024-03-17T05:46:36;1.75;;;1.15;;
13580;SDS011;6861;46.170;7.222;2024-03-17T05:49:03;4.85;;;2.70;;
13580;SDS011;6861;46.170;7.222;2024-03-17T05:51:33;3.50;;;2.50;;
13580;SDS011;6861;46.170;7.222;2024-03-17T05:54:01;3.53;;;2.20;;
13580;SDS011;6861;46.170;7.222;2024-03-17T05:56:28;2.45;;;1.63;;
13580;SDS011;6861;46.170;7.222;2024-03-17T05:58:55;2.45;;;1.63;;
13580;SDS011;6861;46.170;7.222;2024-03-17T06:01:22;3.70;;;1.20;;
13580;SDS011;6861;46.170;7.222;2024-03-17T06:03:50;1.20;;;0.95;;
13580;SDS011;6861;46.170;7.222;2024-03-17T06:06:17;1.95;;;0.88;;
13580;SDS011;6861;46.170;7.222;2024-03-17T06:08:45;1.58;;;0.77;;
13580;SDS011;6861;46.170;7.222;2024-03-17T06:11:13;1.45;;;0.90;;
13580;SDS011;6861;46.170;7.222;2024-03-17T06:13:40;2.22;;;0.90;;
13580;SDS011;6861;46.170;7.222;2024-03-17T06:16:07;1.80;;;0.80;;
13580;SDS011;6861;46.170;7.222;2024-03-17T06:18:34;1.95;;;0.82;;
13580;SDS011;6861;46.170;7.222;2024-03-17T06:21:04;0.95;;;0.63;;
13580;SDS011;6861;46.170;7.222;2024-03-17T06:23:34;2.53;;;0.85;;
13580;SDS011;6861;46.170;7.222;2024-03-17T06:26:03;1.83;;;1.00;;
13580;SDS011;6861;46.170;7.222;2024-03-17T06:28:31;2.85;;;1.00;;
13580;SDS011;6861;46.170;7.222;2024-03-17T06:30:59;1.38;;;0.80;;
13580;SDS011;6861;46.170;7.222;2024-03-17T06:33:29;3.40;;;0.90;;
13580;SDS011;6861;46.170;7.222;2024-03-17T06:35:57;1.42;;;0.80;;
13580;SDS011;6861;46.170;7.222;2024-03-17T06:38:24;2.25;;;0.95;;
13580;SDS011;6861;46.170;7.222;2024-03-17T06:40:52;1.10;;;0.80;;
13580;SDS011;6861;46.170;7.222;2024-03-17T06:43:20;2.97;;;1.00;;
13580;SDS011;6861;46.170;7.222;2024-03-17T06:45:54;2.42;;;1.17;;
13580;SDS011;6861;46.170;7.222;2024-03-17T06:48:23;2.20;;;1.20;;
13580;SDS011;6861;46.170;7.222;2024-03-17T06:50:51;1.67;;;0.90;;
13580;SDS011;6861;46.170;7.222;2024-03-17T06:53:19;1.70;;;1.02;;
13580;SDS011;6861;46.170;7.222;2024-03-17T06:55:53;1.92;;;1.00;;
13580;SDS011;6861;46.170;7.222;2024-03-17T06:58:22;2.22;;;1.15;;
13580;SDS011;6861;46.170;7.222;2024-03-17T07:00:55;3.40;;;1.50;;
13580;SDS011;6861;46.170;7.222;2024-03-17T07:03:24;2.13;;;1.48;;
13580;SDS011;6861;46.170;7.222;2024-03-17T07:05:53;4.55;;;1.30;;
13580;SDS011;6861;46.170;7.222;2024-03-17T07:08:22;2.42;;;0.88;;
13580;SDS011;6861;46.170;7.222;2024-03-17T07:10:57;3.58;;;1.00;;
13580;SDS011;6861;46.170;7.222;2024-03-17T07:13:27;1.67;;;1.05;;
13580;SDS011;6861;46.170;7.222;2024-03-17T07:15:56;2.85;;;1.20;;
13580;SDS011;6861;46.170;7.222;2024-03-17T07:18:24;1.38;;;1.10;;
13580;SDS011;6861;46.170;7.222;2024-03-17T07:20:53;4.25;;;1.30;;
13580;SDS011;6861;46.170;7.222;2024-03-17T07:23:23;1.88;;;1.10;;
13580;SDS011;6861;46.170;7.222;2024-03-17T07:25:54;2.33;;;1.27;;
13580;SDS011;6861;46.170;7.222;2024-03-17T07:28:22;3.83;;;1.02;;
13580;SDS011;6861;46.170;7.222;2024-03-17T07:30:51;2.38;;;1.15;;
13580;SDS011;6861;46.170;7.222;2024-03-17T07:33:20;2.42;;;1.40;;
13580;SDS011;6861;46.170;7.222;2024-03-17T07:35:48;1.95;;;1.20;;
13580;SDS011;6861;46.170;7.222;2024-03-17T07:38:15;1.75;;;1.00;;
13580;SDS011;6861;46.170;7.222;2024-03-17T07:40:43;3.85;;;1.10;;
13580;SDS011;6861;46.170;7.222;2024-03-17T07:43:12;2.35;;;1.00;;
13580;SDS011;6861;46.170;7.222;2024-03-17T07:45:39;2.25;;;0.80;;
13580;SDS011;6861;46.170;7.222;2024-03-17T07:48:09;1.58;;;1.02;;
13580;SDS011;6861;46.170;7.222;2024-03-17T07:50:37;2.88;;;1.10;;
13580;SDS011;6861;46.170;7.222;2024-03-17T07:53:04;3.33;;;1.00;;
13580;SDS011;6861;46.170;7.222;2024-03-17T07:55:31;2.60;;;1.20;;
13580;SDS011;6861;46.170;7.222;2024-03-17T07:57:58;3.08;;;1.27;;
13580;SDS011;6861;46.170;7.222;2024-03-17T08:00:26;2.67;;;1.00;;
13580;SDS011;6861;46.170;7.222;2024-03-17T08:02:53;2.35;;;1.00;;
13580;SDS011;6861;46.170;7.222;2024-03-17T08:05:22;2.20;;;1.20;;
13580;SDS011;6861;46.170;7.222;2024-03-17T08:07:49;1.80;;;0.98;;
13580;SDS011;6861;46.170;7.222;2024-03-17T08:10:17;4.35;;;1.25;;
13580;SDS011;6861;46.170;7.222;2024-03-17T08:12:44;2.35;;;1.00;;
13580;SDS011;6861;46.170;7.222;2024-03-17T08:15:12;2.33;;;1.10;;
13580;SDS011;6861;46.170;7.222;2024-03-17T08:17:39;2.30;;;1.00;;
13580;SDS011;6861;46.170;7.222;2024-03-17T08:20:07;3.45;;;1.00;;
13580;SDS011;6861;46.170;7.222;2024-03-17T08:22:36;1.38;;;0.90;;
13580;SDS011;6861;46.170;7.222;2024-03-17T08:25:04;5.10;;;1.20;;
13580;SDS011;6861;46.170;7.222;2024-03-17T08:27:33;2.38;;;1.00;;
13580;SDS011;6861;46.170;7.222;2024-03-17T08:30:00;2.45;;;0.95;;
13580;SDS011;6861;46.170;7.222;2024-03-17T08:32:28;4.07;;;1.00;;
13580;SDS011;6861;46.170;7.222;2024-03-17T08:34:56;2.42;;;1.27;;
13580;SDS011;6861;46.170;7.222;2024-03-17T08:37:23;3.13;;;1.08;;
13580;SDS011;6861;46.170;7.222;2024-03-17T08:39:53;2.22;;;1.10;;
13580;SDS011;6861;46.170;7.222;2024-03-17T08:42:20;3.03;;;0.98;;
13580;SDS011;6861;46.170;7.222;2024-03-17T08:44:47;2.85;;;1.00;;
13580;SDS011;6861;46.170;7.222;2024-03-17T08:47:15;1.85;;;1.10;;
13580;SDS011;6861;46.170;7.222;2024-03-17T08:49:42;1.67;;;1.20;;
13580;SDS011;6861;46.170;7.222;2024-03-17T08:52:09;2.85;;;1.30;;
13580;SDS011;6861;46.170;7.222;2024-03-17T08:54:37;2.67;;;0.98;;
13580;SDS011;6861;46.170;7.222;2024-03-17T08:57:06;2.85;;;1.23;;
13580;SDS011;6861;46.170;7.222;2024-03-17T08:59:33;3.33;;;1.35;;
13580;SDS011;6861;46.170;7.222;2024-03-17T09:02:00;3.10;;;1.90;;
13580;SDS011;6861;46.170;7.222;2024-03-17T09:04:27;3.83;;;2.10;;
13580;SDS011;6861;46.170;7.222;2024-03-17T09:06:54;3.75;;;1.15;;
13580;SDS011;6861;46.170;7.222;2024-03-17T09:09:22;1.60;;;1.15;;
13580;SDS011;6861;46.170;7.222;2024-03-17T09:11:50;1.58;;;1.13;;
13580;SDS011;6861;46.170;7.222;2024-03-17T09:14:19;1.50;;;1.00;;
13580;SDS011;6861;46.170;7.222;2024-03-17T09:16:47;1.17;;;0.80;;
13580;SDS011;6861;46.170;7.222;2024-03-17T09:19:14;2.05;;;1.10;;
13580;SDS011;6861;46.170;7.222;2024-03-17T09:21:42;3.08;;;1.25;;
13580;SDS011;6861;46.170;7.222;2024-03-17T09:24:10;4.07;;;1.80;;
13580;SDS011;6861;46.170;7.222;2024-03-17T09:26:37;1.95;;;1.10;;
13580;SDS011;6861;46.170;7.222;2024-03-17T09:29:06;2.30;;;1.40;;
13580;SDS011;6861;46.170;7.222;2024-03-17T09:31:34;1.83;;;1.27;;
13580;SDS011;6861;46.170;7.222;2024-03-17T09:34:02;3.72;;;1.40;;
13580;SDS011;6861;46.170;7.222;2024-03-17T09:36:29;2.45;;;1.20;;
13580;SDS011;6861;46.170;7.222;2024-03-17T09:38:57;1.80;;;0.90;;
13580;SDS011;6861;46.170;7.222;2024-03-17T09:41:26;1.50;;;0.90;;
13580;SDS011;6861;46.170;7.222;2024-03-17T09:43:55;1.48;;;0.93;;
13580;SDS011;6861;46.170;7.222;2024-03-17T09:46:23;2.15;;;1.00;;
13580;SDS011;6861;46.170;7.222;2024-03-17T09:48:53;2.08;;;0.98;;
13580;SDS011;6861;46.170;7.222;2024-03-17T09:51:23;3.38;;;1.10;;
13580;SDS011;6861;46.170;7.222;2024-03-17T09:53:51;2.72;;;0.90;;
13580;SDS011;6861;46.170;7.222;2024-03-17T09:56:19;2.80;;;1.00;;
13580;SDS011;6861;46.170;7.222;2024-03-17T09:58:48;1.75;;;1.25;;
13580;SDS011;6861;46.170;7.222;2024-03-17T10:01:16;4.32;;;1.40;;
13580;SDS011;6861;46.170;7.222;2024-03-17T10:03:44;1.92;;;1.00;;
13580;SDS011;6861;46.170;7.222;2024-03-17T10:06:18;3.42;;;1.42;;
13580;SDS011;6861;46.170;7.222;2024-03-17T10:08:46;1.70;;;1.17;;
13580;SDS011;6861;46.170;7.222;2024-03-17T10:11:15;1.70;;;1.30;;
13580;SDS011;6861;46.170;7.222;2024-03-17T10:13:45;1.45;;;0.90;;
13580;SDS011;6861;46.170;7.222;2024-03-17T10:19:05;2.47;;;1.00;;
13580;SDS011;6861;46.170;7.222;2024-03-17T10:21:37;2.05;;;1.08;;
13580;SDS011;6861;46.170;7.222;2024-03-17T10:24:06;2.05;;;0.90;;
13580;SDS011;6861;46.170;7.222;2024-03-17T10:26:38;4.07;;;1.00;;
13580;SDS011;6861;46.170;7.222;2024-03-17T10:29:21;1.10;;;0.73;;
13580;SDS011;6861;46.170;7.222;2024-03-17T10:31:51;1.58;;;0.98;;
13580;SDS011;6861;46.170;7.222;2024-03-17T10:34:21;1.55;;;0.90;;
13580;SDS011;6861;46.170;7.222;2024-03-17T10:36:51;2.08;;;0.90;;
13580;SDS011;6861;46.170;7.222;2024-03-17T10:39:31;2.15;;;0.70;;
13580;SDS011;6861;46.170;7.222;2024-03-17T10:42:00;1.63;;;0.80;;
13580;SDS011;6861;46.170;7.222;2024-03-17T10:44:28;1.17;;;0.70;;
13580;SDS011;6861;46.170;7.222;2024-03-17T10:46:56;2.17;;;0.80;;
13580;SDS011;6861;46.170;7.222;2024-03-17T10:49:28;0.98;;;0.60;;
13580;SDS011;6861;46.170;7.222;2024-03-17T10:52:00;1.20;;;0.77;;
13580;SDS011;6861;46.170;7.222;2024-03-17T10:54:30;3.55;;;1.15;;
13580;SDS011;6861;46.170;7.222;2024-03-17T10:57:02;1.33;;;0.80;;
13580;SDS011;6861;46.170;7.222;2024-03-17T10:59:46;2.63;;;0.90;;
13580;SDS011;6861;46.170;7.222;2024-03-17T11:02:19;2.20;;;0.68;;
13580;SDS011;6861;46.170;7.222;2024-03-17T11:04:50;2.50;;;1.00;;
13580;SDS011;6861;46.170;7.222;2024-03-17T11:07:20;1.05;;;0.60;;
13580;SDS011;6861;46.170;7.222;2024-03-17T11:09:48;1.63;;;0.90;;
13580;SDS011;6861;46.170;7.222;2024-03-17T11:18:29;3.50;;;1.40;;
13580;SDS011;6861;46.170;7.222;2024-03-17T11:21:00;2.25;;;0.90;;
13580;SDS011;6861;46.170;7.222;2024-03-17T11:23:35;1.10;;;0.70;;
13580;SDS011;6861;46.170;7.222;2024-03-17T11:26:04;0.88;;;0.70;;
13580;SDS011;6861;46.170;7.222;2024-03-17T11:28:48;1.52;;;0.80;;
13580;SDS011;6861;46.170;7.222;2024-03-17T11:31:40;0.93;;;0.70;;
13580;SDS011;6861;46.170;7.222;2024-03-17T11:36:57;1.38;;;0.82;;
13580;SDS011;6861;46.170;7.222;2024-03-17T11:42:22;2.05;;;1.48;;
13580;SDS011;6861;46.170;7.222;2024-03-17T11:45:01;1.98;;;1.02;;
13580;SDS011;6861;46.170;7.222;2024-03-17T11:47:35;1.77;;;0.80;;
13580;SDS011;6861;46.170;7.222;2024-03-17T11:50:04;3.25;;;0.80;;
13580;SDS011;6861;46.170;7.222;2024-03-17T11:52:33;1.58;;;0.80;;
13580;SDS011;6861;46.170;7.222;2024-03-17T11:55:02;4.07;;;1.00;;
13580;SDS011;6861;46.170;7.222;2024-03-17T11:57:29;2.15;;;0.90;;
13580;SDS011;6861;46.170;7.222;2024-03-17T11:59:56;1.35;;;0.70;;
13580;SDS011;6861;46.170;7.222;2024-03-17T12:02:23;1.40;;;0.90;;
13580;SDS011;6861;46.170;7.222;2024-03-17T12:04:52;2.10;;;1.00;;
13580;SDS011;6861;46.170;7.222;2024-03-17T12:07:19;1.80;;;0.90;;
13580;SDS011;6861;46.170;7.222;2024-03-17T12:09:49;1.05;;;0.73;;
13580;SDS011;6861;46.170;7.222;2024-03-17T12:12:18;2.60;;;0.77;;
13580;SDS011;6861;46.170;7.222;2024-03-17T12:14:46;0.77;;;0.60;;
13580;SDS011;6861;46.170;7.222;2024-03-17T12:17:14;4.38;;;0.65;;
13580;SDS011;6861;46.170;7.222;2024-03-17T12:19:46;1.33;;;0.82;;
13580;SDS011;6861;46.170;7.222;2024-03-17T12:22:15;1.00;;;0.80;;
13580;SDS011;6861;46.170;7.222;2024-03-17T12:24:44;2.28;;;1.00;;
13580;SDS011;6861;46.170;7.222;2024-03-17T12:27:16;3.30;;;1.10;;
13580;SDS011;6861;46.170;7.222;2024-03-17T12:29:44;3.58;;;1.23;;
13580;SDS011;6861;46.170;7.222;2024-03-17T12:32:13;2.30;;;0.90;;
13580;SDS011;6861;46.170;7.222;2024-03-17T12:34:41;5.03;;;1.00;;
13580;SDS011;6861;46.170;7.222;2024-03-17T12:37:13;2.95;;;0.73;;
13580;SDS011;6861;46.170;7.222;2024-03-17T12:39:42;2.88;;;0.63;;
13580;SDS011;6861;46.170;7.222;2024-03-17T12:42:10;0.57;;;0.55;;
13580;SDS011;6861;46.170;7.222;2024-03-17T12:44:40;0.90;;;0.60;;
13580;SDS011;6861;46.170;7.222;2024-03-17T12:47:15;1.00;;;0.60;;
13580;SDS011;6861;46.170;7.222;2024-03-17T12:49:46;0.90;;;0.70;;
13580;SDS011;6861;46.170;7.222;2024-03-17T12:52:17;3.25;;;0.63;;
13580;SDS011;6861;46.170;7.222;2024-03-17T12:54:45;2.33;;;0.80;;
13580;SDS011;6861;46.170;7.222;2024-03-17T12:57:42;2.10;;;0.93;;
13580;SDS011;6861;46.170;7.222;2024-03-17T13:00:29;1.50;;;1.00;;
13580;SDS011;6861;46.170;7.222;2024-03-17T13:03:00;1.67;;;0.90;;
13580;SDS011;6861;46.170;7.222;2024-03-17T13:05:28;1.38;;;0.70;;
13580;SDS011;6861;46.170;7.222;2024-03-17T13:07:55;2.97;;;1.08;;
13580;SDS011;6861;46.170;7.222;2024-03-17T13:10:23;1.95;;;0.90;;
13580;SDS011;6861;46.170;7.222;2024-03-17T13:12:58;0.70;;;0.50;;
13580;SDS011;6861;46.170;7.222;2024-03-17T13:15:28;1.20;;;0.85;;
13580;SDS011;6861;46.170;7.222;2024-03-17T13:17:57;0.80;;;0.52;;
13580;SDS011;6861;46.170;7.222;2024-03-17T13:20:25;1.58;;;0.90;;
13580;SDS011;6861;46.170;7.222;2024-03-17T13:22:53;1.92;;;0.82;;
13580;SDS011;6861;46.170;7.222;2024-03-17T13:25:21;0.93;;;0.57;;
13580;SDS011;6861;46.170;7.222;2024-03-17T13:27:51;2.45;;;0.85;;
13580;SDS011;6861;46.170;7.222;2024-03-17T13:30:19;2.22;;;0.80;;
13580;SDS011;6861;46.170;7.222;2024-03-17T13:32:49;2.42;;;1.00;;
13580;SDS011;6861;46.170;7.222;2024-03-17T13:35:21;2.80;;;1.08;;
13580;SDS011;6861;46.170;7.222;2024-03-17T13:37:51;1.92;;;0.90;;
13580;SDS011;6861;46.170;7.222;2024-03-17T13:40:19;3.00;;;0.90;;
13580;SDS011;6861;46.170;7.222;2024-03-17T13:42:48;3.00;;;0.73;;
13580;SDS011;6861;46.170;7.222;2024-03-17T13:45:17;1.35;;;0.85;;
13580;SDS011;6861;46.170;7.222;2024-03-17T13:47:47;1.60;;;0.80;;
13580;SDS011;6861;46.170;7.222;2024-03-17T13:50:17;2.90;;;0.90;;
13580;SDS011;6861;46.170;7.222;2024-03-17T13:52:44;2.15;;;0.93;;
13580;SDS011;6861;46.170;7.222;2024-03-17T13:55:13;1.40;;;1.00;;
13580;SDS011;6861;46.170;7.222;2024-03-17T13:57:43;2.55;;;1.02;;
13580;SDS011;6861;46.170;7.222;2024-03-17T14:00:12;3.15;;;0.88;;
13580;SDS011;6861;46.170;7.222;2024-03-17T14:02:41;2.17;;;1.00;;
13580;SDS011;6861;46.170;7.222;2024-03-17T14:05:11;1.00;;;0.90;;
13580;SDS011;6861;46.170;7.222;2024-03-17T14:07:41;1.42;;;0.93;;
13580;SDS011;6861;46.170;7.222;2024-03-17T14:10:10;3.88;;;1.33;;
13580;SDS011;6861;46.170;7.222;2024-03-17T14:12:38;3.28;;;0.80;;
13580;SDS011;6861;46.170;7.222;2024-03-17T14:15:06;2.83;;;0.95;;
13580;SDS011;6861;46.170;7.222;2024-03-17T14:17:36;2.13;;;1.00;;
13580;SDS011;6861;46.170;7.222;2024-03-17T14:20:04;1.23;;;0.75;;
13580;SDS011;6861;46.170;7.222;2024-03-17T14:22:34;2.20;;;0.68;;
13580;SDS011;6861;46.170;7.222;2024-03-17T14:25:04;2.40;;;0.70;;
13580;SDS011;6861;46.170;7.222;2024-03-17T14:27:33;3.55;;;0.70;;
13580;SDS011;6861;46.170;7.222;2024-03-17T14:30:00;2.40;;;1.00;;
13580;SDS011;6861;46.170;7.222;2024-03-17T14:32:29;1.83;;;1.00;;
13580;SDS011;6861;46.170;7.222;2024-03-17T14:34:56;2.05;;;1.02;;
13580;SDS011;6861;46.170;7.222;2024-03-17T14:37:25;3.63;;;1.02;;
13580;SDS011;6861;46.170;7.222;2024-03-17T14:39:53;1.42;;;0.90;;
13580;SDS011;6861;46.170;7.222;2024-03-17T14:42:22;2.05;;;0.88;;
13580;SDS011;6861;46.170;7.222;2024-03-17T14:44:50;1.52;;;0.73;;
13580;SDS011;6861;46.170;7.222;2024-03-17T14:47:18;2.58;;;0.90;;
13580;SDS011;6861;46.170;7.222;2024-03-17T14:49:45;1.40;;;0.90;;
13580;SDS011;6861;46.170;7.222;2024-03-17T14:52:12;2.67;;;0.80;;
13580;SDS011;6861;46.170;7.222;2024-03-17T14:54:40;2.45;;;0.80;;
13580;SDS011;6861;46.170;7.222;2024-03-17T14:57:08;2.05;;;0.95;;
13580;SDS011;6861;46.170;7.222;2024-03-17T14:59:37;1.27;;;0.80;;
13580;SDS011;6861;46.170;7.222;2024-03-17T15:02:05;2.97;;;1.27;;
13580;SDS011;6861;46.170;7.222;2024-03-17T15:04:34;1.48;;;0.88;;
13580;SDS011;6861;46.170;7.222;2024-03-17T15:07:01;3.20;;;1.13;;
13580;SDS011;6861;46.170;7.222;2024-03-17T15:09:28;3.55;;;1.90;;
13580;SDS011;6861;46.170;7.222;2024-03-17T15:11:55;3.22;;;2.20;;
13580;SDS011;6861;46.170;7.222;2024-03-17T15:14:23;3.45;;;1.85;;
13580;SDS011;6861;46.170;7.222;2024-03-17T15:16:52;2.55;;;1.00;;
13580;SDS011;6861;46.170;7.222;2024-03-17T15:19:19;1.45;;;1.00;;
13580;SDS011;6861;46.170;7.222;2024-03-17T15:21:46;1.73;;;1.00;;
13580;SDS011;6861;46.170;7.222;2024-03-17T15:24:13;1.88;;;1.08;;